Hilton, NY

8:12 PM EST on February 09, 2016 (GMT -0500)
Raspberry Patch and White Rabbit | | Change Station
CLOSE
Current Station
Personal Weather Station
Location: Rochester, NY
Elevation: 335 ft
Nearby Weather Stations

Elev 335 ft 43.25 °N, 77.73 °W | Updated 2 seconds ago

Overcast
Overcast
35.6 °F
Feels Like 36 °F
N
2.0
Wind Variable Wind from West
Gusts 12.0 mph

Today
High -- | Low -- °F
--% Chance of Precip.
Yesterday
High -- | Low -- °F
Precip. -- in
Pressure 29.57 in
Visibility 10.0 miles
Clouds Mostly Cloudy 4700 ft
Mostly Cloudy 5500 ft
Overcast 15000 ft
Windchill 36 °F
Dew Point 28 °F
Humidity 75%
Rainfall 0.00 in
Snow Depth Not available.
7:17 AM 5:33 PM
Waxing Crescent, 3% visible
METAR KROC 100054Z 27008KT 10SM BKN047 BKN055 OVC150 02/M03 A2955 RMK AO2 SLP013 T00171028
Pressure 29.57 in
Visibility 10.0 miles
Clouds Mostly Cloudy 4700 ft
Mostly Cloudy 5500 ft
Overcast 15000 ft
Windchill 36 °F
Dew Point 28 °F
Humidity 75%
Rainfall 0.00 in
Snow Depth Not available.
7:17 AM 5:33 PM
Waxing Crescent, 3% visible
METAR KROC 100054Z 27008KT 10SM BKN047 BKN055 OVC150 02/M03 A2955 RMK AO2 SLP013 T00171028

10-Day Weather Forecast

Almanac

Astronomy

Feb. 09, 2016 Rise Set
Actual Time
Civil Twilight
Nautical Twilight
Astronomical Twilight
Moon
Length of Visible Light
Length of Day
Tomorrow will be .
, % of the Moon is Illuminated

Today's Extremes

State Highs State Lows

Community

WunderPhotos

Upload Photos

1,891,752 photos uploaded!

WunderBlog® & News

Nearby

Air Quality

  Air Quality AQ Index Pollutant
Not available.

Snow Depth

Station Depth Elevation

Earthquake Activity

City Distance Mag. Time & Date
Minimum magnitude displayed is 2.5.

Coastal Water Temperatures

Place Temperature

Stations

Nearby Weather Stations

Station Location Temp. Windchill Dew Point Humidity Wind Precip. Elev Updated Type
                   

Watches & Warnings

There are currently no watches in effect.